Time;durP1;ratioP1;P1;durP2;ratioP2;P2;SDS_P1;SDS_P2;PMS_P1;PMS_P2;Temp;Humidity;BMP_temperature;BMP_pressure;BME280_temperature;BME280_humidity;BME280_pressure;Samples;Min_cycle;Max_cycle;Signal;HPM_P1;HPM_P2
2022/08/29 00:00:43;;;;;;;1.47;1.37;;;16.30;99.90;;;;;;5013688;28;20537;-68
2022/08/29 00:03:10;;;;;;;1.93;1.63;;;16.20;99.90;;;;;;5013570;28;20421;-69
2022/08/29 00:05:37;;;;;;;2.10;1.23;;;16.20;99.90;;;;;;5013638;28;20439;-68
2022/08/29 00:08:04;;;;;;;1.00;1.00;;;16.30;99.90;;;;;;5013601;28;20454;-69
2022/08/29 00:10:31;;;;;;;1.40;1.00;;;16.40;99.90;;;;;;5013468;28;20401;-70
2022/08/29 00:12:57;;;;;;;1.17;1.13;;;16.40;99.90;;;;;;5013782;28;20496;-68
2022/08/29 00:15:22;;;;;;;1.27;1.27;;;16.30;99.90;;;;;;5013532;28;20931;-69
2022/08/29 00:17:49;;;;;;;2.00;1.17;;;16.40;99.90;;;;;;5013707;28;20259;-68
2022/08/29 00:20:19;;;;;;;1.60;1.50;;;16.40;99.90;;;;;;5013403;28;20412;-70
2022/08/29 00:22:45;;;;;;;1.40;1.30;;;16.30;99.90;;;;;;5013774;28;20405;-70
2022/08/29 00:25:13;;;;;;;1.00;1.00;;;16.20;99.90;;;;;;5013523;28;20774;-68
2022/08/29 00:27:39;;;;;;;1.00;1.00;;;16.20;99.90;;;;;;5013392;28;20489;-69
2022/08/29 00:30:07;;;;;;;2.70;2.00;;;16.10;99.90;;;;;;5013397;28;20439;-68
2022/08/29 00:32:34;;;;;;;2.40;2.20;;;16.10;99.90;;;;;;5014510;28;20254;-68
2022/08/29 00:35:02;;;;;;;4.63;2.03;;;16.00;99.90;;;;;;5017414;28;20959;-68
2022/08/29 00:37:28;;;;;;;1.97;1.00;;;16.00;99.90;;;;;;5017371;28;20406;-68
2022/08/29 00:39:53;;;;;;;1.13;1.03;;;16.00;99.90;;;;;;5017123;28;20412;-69
2022/08/29 00:42:19;;;;;;;2.10;1.33;;;16.10;99.90;;;;;;5017263;28;20177;-68
2022/08/29 00:44:45;;;;;;;1.43;1.33;;;16.20;99.90;;;;;;5017252;28;20167;-69
2022/08/29 00:47:17;;;;;;;2.85;1.10;;;16.10;99.90;;;;;;5016903;28;20286;-68
2022/08/29 00:49:47;;;;;;;3.13;2.10;;;16.00;99.90;;;;;;5017227;28;20404;-69
2022/08/29 00:52:18;;;;;;;1.20;1.10;;;16.00;99.90;;;;;;5017047;28;20398;-69
2022/08/29 00:54:49;;;;;;;1.30;1.27;;;15.90;99.90;;;;;;5017107;28;20488;-69
2022/08/29 00:57:18;;;;;;;0.90;0.67;;;15.90;99.90;;;;;;5016870;28;20393;-68
2022/08/29 00:59:44;;;;;;;2.03;0.97;;;15.90;99.90;;;;;;5016690;28;20403;-69
2022/08/29 01:02:10;;;;;;;1.70;1.57;;;16.00;99.90;;;;;;5017061;28;20776;-68
2022/08/29 01:04:36;;;;;;;1.63;1.53;;;15.90;99.90;;;;;;5017079;28;20403;-68
2022/08/29 01:07:02;;;;;;;1.27;1.27;;;15.80;99.90;;;;;;5016616;28;20604;-68
2022/08/29 01:09:29;;;;;;;2.97;2.77;;;15.90;99.90;;;;;;5016753;28;20449;-68
2022/08/29 01:14:46;;;;;;;1.57;1.43;;;16.00;99.90;;;;;;5016517;28;20549;-69
2022/08/29 01:17:17;;;;;;;1.43;1.30;;;16.00;99.90;;;;;;5016606;28;20445;-69
2022/08/29 01:19:42;;;;;;;1.00;1.00;;;16.00;99.90;;;;;;5016500;28;20413;-68
2022/08/29 01:22:29;;;;;;;2.13;1.93;;;16.10;99.90;;;;;;5016526;28;20404;-67
2022/08/29 01:24:56;;;;;;;0.83;0.73;;;16.10;99.90;;;;;;5016358;28;20160;-68
2022/08/29 01:27:27;;;;;;;1.00;0.90;;;16.00;99.90;;;;;;5016290;28;20875;-69
2022/08/29 01:29:52;;;;;;;1.00;1.00;;;15.90;99.90;;;;;;5016312;28;20457;-69
2022/08/29 01:32:18;;;;;;;4.17;1.40;;;15.90;99.90;;;;;;5016477;28;20898;-68
2022/08/29 01:34:44;;;;;;;2.10;1.87;;;15.80;99.90;;;;;;5015045;28;20228;-69
2022/08/29 01:37:13;;;;;;;2.60;2.07;;;15.80;99.90;;;;;;5016411;28;20201;-69
2022/08/29 01:39:40;;;;;;;1.80;1.67;;;15.90;99.90;;;;;;5015991;28;20408;-68
2022/08/29 01:42:19;;;;;;;1.10;1.10;;;15.90;99.90;;;;;;5016158;28;20813;-68
2022/08/29 01:44:54;;;;;;;0.80;0.80;;;16.00;99.90;;;;;;5015112;28;20459;-68
2022/08/29 01:47:22;;;;;;;1.30;1.20;;;16.00;99.90;;;;;;5015819;28;20909;-68
2022/08/29 01:49:48;;;;;;;1.50;0.77;;;15.80;99.90;;;;;;5015679;28;20403;-69
2022/08/29 01:52:14;;;;;;;1.67;1.57;;;15.70;99.90;;;;;;5016066;28;20499;-68
2022/08/29 01:54:41;;;;;;;1.37;1.30;;;15.70;99.90;;;;;;5015913;28;20441;-69
2022/08/29 01:57:07;;;;;;;1.20;1.20;;;15.70;99.90;;;;;;5015679;28;20204;-68
2022/08/29 01:59:33;;;;;;;2.33;1.90;;;15.70;99.90;;;;;;5015705;28;20403;-67
2022/08/29 02:02:08;;;;;;;1.20;1.13;;;15.70;99.90;;;;;;5015626;28;20413;-69
2022/08/29 02:04:34;;;;;;;1.77;1.63;;;15.70;99.90;;;;;;5015875;28;20550;-68
2022/08/29 02:07:00;;;;;;;1.67;1.57;;;15.70;99.90;;;;;;5015620;28;20517;-69
2022/08/29 02:09:27;;;;;;;0.90;0.90;;;15.70;99.90;;;;;;5015566;28;20788;-69
2022/08/29 02:11:54;;;;;;;2.33;2.17;;;15.70;99.90;;;;;;5015471;28;20425;-68
2022/08/29 02:14:21;;;;;;;1.47;0.73;;;15.80;99.90;;;;;;5015418;28;20493;-68
2022/08/29 02:16:47;;;;;;;1.90;1.70;;;15.70;99.90;;;;;;5015418;28;20428;-68
2022/08/29 02:19:13;;;;;;;1.67;1.63;;;15.60;99.90;;;;;;5015391;28;20890;-69
2022/08/29 02:21:39;;;;;;;3.33;1.87;;;15.60;99.90;;;;;;5015187;28;20182;-69
2022/08/29 02:24:05;;;;;;;1.23;1.03;;;15.50;99.90;;;;;;5015410;28;20179;-69
2022/08/29 02:26:31;;;;;;;2.63;2.47;;;15.60;99.90;;;;;;5015137;28;20443;-69
2022/08/29 02:28:57;;;;;;;2.13;2.03;;;15.50;99.90;;;;;;5015060;28;20545;-68
2022/08/29 02:31:23;;;;;;;1.50;1.40;;;15.50;99.90;;;;;;5014972;28;20172;-69
2022/08/29 02:33:50;;;;;;;1.70;1.60;;;15.60;99.90;;;;;;5015122;28;20167;-68
2022/08/29 02:36:17;;;;;;;6.60;3.40;;;15.50;99.90;;;;;;5014970;28;20785;-68
2022/08/29 02:38:42;;;;;;;3.17;2.97;;;15.40;99.90;;;;;;5015021;28;20464;-68
2022/08/29 02:41:08;;;;;;;2.67;1.20;;;15.50;99.90;;;;;;5014778;28;20411;-68
2022/08/29 02:43:34;;;;;;;1.40;1.33;;;15.40;99.90;;;;;;5013575;28;20229;-69
2022/08/29 02:46:00;;;;;;;1.47;1.27;;;15.40;99.90;;;;;;5014791;28;20422;-68
2022/08/29 02:48:26;;;;;;;1.47;1.33;;;15.30;99.90;;;;;;5014841;28;20250;-69
2022/08/29 02:50:54;;;;;;;2.50;2.30;;;15.30;99.90;;;;;;5014700;28;20414;-68
2022/08/29 02:53:24;;;;;;;1.77;1.67;;;15.30;99.90;;;;;;5015296;28;20775;-69
2022/08/29 02:55:53;;;;;;;2.60;2.40;;;15.40;99.90;;;;;;5014481;28;20438;-69
2022/08/29 02:58:21;;;;;;;4.47;2.33;;;15.40;99.90;;;;;;5014638;28;20891;-69
2022/08/29 03:00:47;;;;;;;1.80;1.70;;;15.40;99.90;;;;;;5014461;28;20493;-68
2022/08/29 03:03:13;;;;;;;1.60;1.50;;;15.50;99.90;;;;;;5014633;28;20417;-69
2022/08/29 03:05:39;;;;;;;1.77;1.67;;;15.40;99.90;;;;;;5014452;28;20438;-67
2022/08/29 03:08:09;;;;;;;1.80;1.30;;;15.30;99.90;;;;;;5014359;28;20199;-69
2022/08/29 03:10:35;;;;;;;2.60;1.40;;;15.30;99.90;;;;;;5014341;28;20434;-69
2022/08/29 03:13:01;;;;;;;1.50;1.40;;;15.20;99.90;;;;;;5014381;28;20403;-69
2022/08/29 03:15:27;;;;;;;2.53;2.33;;;15.20;99.90;;;;;;5014322;28;20457;-69
2022/08/29 03:17:53;;;;;;;2.10;1.97;;;15.30;99.90;;;;;;5014287;28;20414;-69
2022/08/29 03:20:21;;;;;;;2.20;1.20;;;15.30;99.90;;;;;;5014174;28;20238;-69
2022/08/29 03:22:48;;;;;;;0.90;0.90;;;15.20;99.90;;;;;;5014392;28;20464;-68
2022/08/29 03:25:14;;;;;;;1.20;1.10;;;15.20;99.90;;;;;;5014299;28;20513;-69
2022/08/29 03:27:40;;;;;;;1.40;1.30;;;15.20;99.90;;;;;;5014050;28;20507;-68
2022/08/29 03:30:12;;;;;;;1.23;1.13;;;15.20;99.90;;;;;;5014264;28;20502;-68
2022/08/29 03:32:38;;;;;;;0.60;0.60;;;15.20;99.90;;;;;;5014353;28;20858;-69
2022/08/29 03:35:05;;;;;;;1.97;1.60;;;15.10;99.90;;;;;;5014185;28;20489;-68
2022/08/29 03:37:31;;;;;;;1.90;1.80;;;15.10;99.90;;;;;;5013907;28;20910;-68
2022/08/29 03:39:57;;;;;;;2.70;1.77;;;15.00;99.90;;;;;;5013739;28;20416;-69
2022/08/29 03:42:22;;;;;;;2.23;2.07;;;15.00;99.90;;;;;;5013925;28;20495;-69
2022/08/29 03:44:48;;;;;;;0.87;0.83;;;14.90;99.90;;;;;;5014034;28;20191;-69
2022/08/29 03:47:14;;;;;;;2.70;2.50;;;14.90;99.90;;;;;;5013827;28;20171;-69
2022/08/29 03:49:40;;;;;;;1.67;1.57;;;14.90;99.90;;;;;;5013816;28;20551;-68
2022/08/29 03:52:08;;;;;;;1.40;1.33;;;15.00;99.90;;;;;;5014016;28;20462;-69
2022/08/29 03:54:34;;;;;;;1.40;1.40;;;14.90;99.90;;;;;;5013801;28;20225;-70
2022/08/29 03:57:00;;;;;;;1.50;1.40;;;14.90;99.90;;;;;;5013724;28;20429;-67
2022/08/29 03:59:26;;;;;;;3.33;2.50;;;14.80;99.90;;;;;;5013704;28;20410;-68
2022/08/29 04:01:51;;;;;;;1.30;1.23;;;14.80;99.90;;;;;;5013660;28;20172;-68
2022/08/29 04:07:05;;;;;;;2.60;1.37;;;15.00;99.90;;;;;;5014206;28;20207;-68
2022/08/29 04:09:31;;;;;;;2.37;2.27;;;15.00;99.90;;;;;;5017869;28;20461;-68
2022/08/29 04:11:57;;;;;;;3.40;2.70;;;14.80;99.90;;;;;;5017680;28;20953;-68
2022/08/29 04:14:23;;;;;;;1.07;0.97;;;14.80;99.90;;;;;;5017635;28;20411;-68
2022/08/29 04:16:49;;;;;;;2.77;2.60;;;14.80;99.90;;;;;;5017618;28;20431;-69
2022/08/29 04:19:16;;;;;;;3.13;2.93;;;14.90;99.90;;;;;;5017761;28;20891;-69
2022/08/29 04:21:42;;;;;;;2.43;1.77;;;14.80;99.90;;;;;;5017349;28;20228;-68
2022/08/29 04:24:07;;;;;;;1.23;1.23;;;14.80;99.90;;;;;;5017551;28;20500;-68
2022/08/29 04:26:33;;;;;;;3.47;2.20;;;14.80;99.90;;;;;;5017392;28;20195;-68
2022/08/29 04:29:00;;;;;;;1.17;1.17;;;14.90;99.90;;;;;;5017446;28;20262;-69
2022/08/29 04:31:25;;;;;;;2.50;2.30;;;14.90;99.90;;;;;;5017355;28;20493;-68
2022/08/29 04:33:51;;;;;;;1.87;1.33;;;14.90;99.90;;;;;;5017250;28;20848;-68
2022/08/29 04:36:17;;;;;;;1.90;1.80;;;14.90;99.90;;;;;;5017156;28;20202;-68
2022/08/29 04:38:43;;;;;;;1.70;1.37;;;14.90;99.90;;;;;;5017294;28;20188;-69
2022/08/29 04:41:13;;;;;;;2.40;1.50;;;15.00;99.90;;;;;;5017081;28;20410;-68
2022/08/29 04:43:40;;;;;;;0.80;0.80;;;15.00;99.90;;;;;;5017414;28;20410;-69
2022/08/29 04:46:06;;;;;;;4.33;1.17;;;15.00;99.90;;;;;;5017334;28;20426;-68
2022/08/29 04:48:31;;;;;;;2.43;1.33;;;14.90;99.90;;;;;;5016973;28;20453;-68
2022/08/29 04:51:00;;;;;;;2.13;1.97;;;14.90;99.90;;;;;;5016902;28;20511;-68
2022/08/29 04:53:26;;;;;;;2.27;2.07;;;14.80;99.90;;;;;;5017209;28;20469;-68
2022/08/29 04:56:00;;;;;;;1.03;1.03;;;14.90;99.90;;;;;;5016977;28;20495;-69
2022/08/29 04:58:27;;;;;;;1.30;1.20;;;14.80;99.90;;;;;;5017022;28;20414;-68
2022/08/29 05:00:52;;;;;;;1.53;1.43;;;14.80;99.90;;;;;;5016663;28;20450;-69
2022/08/29 05:03:19;;;;;;;2.93;1.27;;;14.80;99.90;;;;;;5017036;28;20438;-68
2022/08/29 05:05:45;;;;;;;1.57;1.47;;;14.80;99.90;;;;;;5016720;28;20198;-68
2022/08/29 05:08:11;;;;;;;1.10;1.00;;;14.90;99.90;;;;;;5016692;28;20449;-69
2022/08/29 05:10:37;;;;;;;1.57;0.97;;;14.90;99.90;;;;;;5016450;28;20649;-68
2022/08/29 05:13:03;;;;;;;2.40;2.20;;;14.90;99.90;;;;;;5016754;28;20410;-69
2022/08/29 05:15:30;;;;;;;2.00;1.90;;;14.80;99.90;;;;;;5016391;28;20450;-69
2022/08/29 05:17:55;;;;;;;2.13;1.97;;;14.90;99.90;;;;;;5016348;28;20197;-69
2022/08/29 05:20:21;;;;;;;0.73;0.73;;;14.90;99.90;;;;;;5014939;28;20901;-68
2022/08/29 05:22:47;;;;;;;1.50;1.30;;;15.00;99.90;;;;;;5014958;28;20410;-69
2022/08/29 05:25:13;;;;;;;2.60;2.00;;;15.00;99.90;;;;;;5015819;28;20200;-68
2022/08/29 05:27:39;;;;;;;1.83;1.73;;;15.00;99.90;;;;;;5015943;28;20198;-69
2022/08/29 05:30:06;;;;;;;1.43;1.17;;;15.10;99.90;;;;;;5015851;28;20418;-69
2022/08/29 05:32:31;;;;;;;1.93;1.70;;;15.10;99.90;;;;;;5016223;28;20517;-68
2022/08/29 05:34:58;;;;;;;2.50;1.73;;;15.10;99.90;;;;;;5016153;28;20498;-69
2022/08/29 05:37:25;;;;;;;3.20;2.77;;;15.20;99.90;;;;;;5016141;28;20416;-68
2022/08/29 05:39:50;;;;;;;1.63;1.10;;;15.20;99.90;;;;;;5016016;28;20415;-69
2022/08/29 05:42:20;;;;;;;1.03;1.00;;;15.30;99.90;;;;;;5016192;28;20403;-68
2022/08/29 05:44:46;;;;;;;4.03;3.60;;;15.30;99.90;;;;;;5016188;28;20197;-69
2022/08/29 05:47:14;;;;;;;2.03;1.37;;;15.50;99.90;;;;;;5015372;28;20461;-68
2022/08/29 05:49:42;;;;;;;3.20;2.50;;;15.80;99.90;;;;;;5014388;28;20489;-67
2022/08/29 05:52:08;;;;;;;3.07;2.23;;;16.00;99.90;;;;;;5014985;28;20415;-69
2022/08/29 05:54:36;;;;;;;1.53;1.27;;;16.20;99.90;;;;;;5015315;28;20959;-68
2022/08/29 05:57:02;;;;;;;2.53;2.13;;;16.40;99.90;;;;;;5015555;28;20438;-68
2022/08/29 05:59:28;;;;;;;2.50;2.40;;;16.50;99.90;;;;;;5015585;28;20891;-68
2022/08/29 06:01:53;;;;;;;1.63;1.30;;;16.60;99.90;;;;;;5015582;28;20938;-70
2022/08/29 06:04:19;;;;;;;2.30;1.80;;;16.70;99.90;;;;;;5015826;28;20262;-68
2022/08/29 06:06:44;;;;;;;1.60;1.50;;;16.90;99.90;;;;;;5015554;28;20213;-70
2022/08/29 06:09:11;;;;;;;2.37;2.20;;;16.90;99.90;;;;;;5015611;28;20200;-70
2022/08/29 06:11:37;;;;;;;4.60;3.00;;;16.90;99.90;;;;;;5015494;28;20164;-69
2022/08/29 06:14:03;;;;;;;2.10;1.37;;;17.10;99.90;;;;;;5015515;28;20746;-70
2022/08/29 06:16:29;;;;;;;2.43;2.20;;;17.30;99.90;;;;;;5014668;28;20213;-68
2022/08/29 06:18:56;;;;;;;1.00;0.93;;;17.40;99.90;;;;;;5013347;28;20914;-68
2022/08/29 06:21:22;;;;;;;1.73;1.63;;;17.60;99.90;;;;;;5013428;28;20745;-69
2022/08/29 06:23:48;;;;;;;2.40;1.77;;;17.80;99.90;;;;;;5015155;28;20497;-69
2022/08/29 06:26:14;;;;;;;2.07;1.97;;;18.00;99.90;;;;;;5013961;28;20496;-70
2022/08/29 06:28:46;;;;;;;1.27;1.17;;;18.10;99.90;;;;;;5015342;28;20451;-69
2022/08/29 06:31:25;;;;;;;2.40;0.87;;;18.40;99.90;;;;;;5014797;28;20408;-69
2022/08/29 06:33:53;;;;;;;1.57;1.20;;;18.90;99.90;;;;;;5015805;28;20397;-70
2022/08/29 06:36:20;;;;;;;1.37;1.20;;;19.50;99.90;;;;;;5013913;28;20463;-70
2022/08/29 06:38:46;;;;;;;3.90;1.70;;;19.90;99.90;;;;;;5014959;28;20409;-68
2022/08/29 06:41:17;;;;;;;1.03;1.03;;;20.20;99.90;;;;;;5014802;28;20444;-69
2022/08/29 06:43:43;;;;;;;1.57;1.47;;;20.20;99.90;;;;;;5015119;28;20409;-69
2022/08/29 06:46:20;;;;;;;1.30;1.20;;;20.40;99.90;;;;;;5015235;28;20782;-70
2022/08/29 06:48:45;;;;;;;0.73;0.70;;;20.70;99.90;;;;;;5015183;28;20499;-70
2022/08/29 06:51:11;;;;;;;1.17;1.07;;;21.00;99.20;;;;;;5014765;28;20508;-70
2022/08/29 06:53:36;;;;;;;2.37;2.17;;;21.10;99.10;;;;;;5015050;28;20250;-69
2022/08/29 06:56:06;;;;;;;0.80;0.80;;;21.10;99.00;;;;;;5014862;28;20196;-70
2022/08/29 06:58:33;;;;;;;1.10;1.00;;;21.10;97.70;;;;;;5014638;28;20175;-70
2022/08/29 07:01:06;;;;;;;0.90;0.73;;;21.10;97.90;;;;;;5014146;28;20434;-68
2022/08/29 07:03:32;;;;;;;1.37;1.10;;;21.20;97.70;;;;;;5014389;28;20500;-69
2022/08/29 07:05:58;;;;;;;0.80;0.80;;;21.00;97.50;;;;;;5014545;28;20530;-69
2022/08/29 07:08:24;;;;;;;1.50;1.40;;;21.10;98.40;;;;;;5014099;28;20457;-70
2022/08/29 07:10:50;;;;;;;1.00;1.00;;;21.30;96.40;;;;;;5014488;28;20251;-70
2022/08/29 07:13:15;;;;;;;1.80;1.37;;;21.40;96.80;;;;;;5014466;28;20183;-69
2022/08/29 07:15:41;;;;;;;1.33;1.20;;;21.70;97.40;;;;;;5014094;28;20454;-70
2022/08/29 07:18:07;;;;;;;1.70;1.47;;;21.90;95.40;;;;;;5014081;28;20199;-69
2022/08/29 07:20:32;;;;;;;0.80;0.80;;;22.10;95.40;;;;;;5013455;28;20727;-69
2022/08/29 07:22:58;;;;;;;0.67;0.67;;;22.30;95.00;;;;;;5014338;28;20203;-69
2022/08/29 07:25:26;;;;;;;1.40;1.30;;;22.30;94.80;;;;;;5013528;28;20278;-69
2022/08/29 07:27:51;;;;;;;2.53;1.00;;;22.30;94.80;;;;;;5013857;28;20204;-69
2022/08/29 07:30:18;;;;;;;1.93;1.83;;;22.60;95.40;;;;;;5012618;28;20409;-70
2022/08/29 07:32:44;;;;;;;1.00;1.00;;;22.90;93.70;;;;;;5014139;28;20167;-70
2022/08/29 07:35:14;;;;;;;0.73;0.60;;;23.10;94.10;;;;;;5012328;28;20449;-69
2022/08/29 07:37:40;;;;;;;1.30;1.20;;;23.60;93.30;;;;;;5014020;28;20401;-70
2022/08/29 07:40:08;;;;;;;0.87;0.80;;;23.90;93.10;;;;;;5013929;28;20770;-70
2022/08/29 07:42:34;;;;;;;1.53;1.17;;;23.90;92.50;;;;;;5013342;28;20174;-70
2022/08/29 07:45:00;;;;;;;2.83;2.63;;;23.90;91.90;;;;;;5014266;28;20412;-69
2022/08/29 07:47:26;;;;;;;1.07;1.00;;;23.90;92.00;;;;;;5013581;28;20442;-69
2022/08/29 07:49:52;;;;;;;1.07;0.80;;;23.80;91.50;;;;;;5013723;28;20524;-70
2022/08/29 07:52:18;;;;;;;0.70;0.60;;;24.00;90.50;;;;;;5013870;28;20164;-69
2022/08/29 07:54:43;;;;;;;0.70;0.60;;;23.90;90.90;;;;;;5012259;28;20431;-70
2022/08/29 07:57:09;;;;;;;1.23;1.17;;;23.60;91.50;;;;;;5013094;28;20427;-70
2022/08/29 07:59:35;;;;;;;1.30;1.20;;;23.50;92.30;;;;;;5013434;28;20186;-70
2022/08/29 08:02:02;;;;;;;1.43;0.90;;;23.70;91.90;;;;;;5013874;28;20579;-69
2022/08/29 08:04:28;;;;;;;1.40;1.13;;;24.00;91.10;;;;;;5013450;28;20230;-69
2022/08/29 08:06:54;;;;;;;1.20;1.07;;;24.20;90.40;;;;;;5013766;28;20425;-70
2022/08/29 08:09:19;;;;;;;0.70;0.70;;;24.30;89.20;;;;;;5013606;28;20839;-69
2022/08/29 08:11:46;;;;;;;0.80;0.80;;;24.50;88.60;;;;;;5012080;28;20254;-70
2022/08/29 08:14:12;;;;;;;1.77;1.67;;;24.70;88.30;;;;;;5013334;28;20214;-69
2022/08/29 08:16:38;;;;;;;0.70;0.70;;;24.90;88.70;;;;;;5013061;28;20428;-70
2022/08/29 08:19:04;;;;;;;0.73;0.73;;;25.40;87.50;;;;;;5013969;28;20414;-70
2022/08/29 08:21:30;;;;;;;1.43;0.90;;;26.20;84.60;;;;;;5013228;28;20449;-69
2022/08/29 08:23:56;;;;;;;1.07;1.03;;;26.90;80.80;;;;;;5013622;28;20171;-70
2022/08/29 08:26:22;;;;;;;0.70;0.70;;;27.40;78.00;;;;;;5013267;28;20426;-70
2022/08/29 08:28:48;;;;;;;0.50;0.50;;;27.80;76.50;;;;;;5013379;28;20199;-70
2022/08/29 08:31:15;;;;;;;0.90;0.90;;;28.20;75.30;;;;;;5011772;28;20402;-70
2022/08/29 08:33:41;;;;;;;1.47;0.60;;;28.40;75.00;;;;;;5012467;28;20407;-70
2022/08/29 08:36:23;;;;;;;0.73;0.73;;;29.10;71.20;;;;;;5013009;28;20502;-70
2022/08/29 08:38:50;;;;;;;0.90;0.90;;;30.30;67.90;;;;;;5013277;28;20784;-71
2022/08/29 08:41:19;;;;;;;1.37;1.27;;;31.30;62.30;;;;;;5013461;28;20403;-70
2022/08/29 08:43:50;;;;;;;0.73;0.67;;;32.30;61.30;;;;;;5013258;28;20407;-71
2022/08/29 08:46:18;;;;;;;1.00;0.80;;;33.40;57.20;;;;;;5013227;28;20458;-70
2022/08/29 08:48:47;;;;;;;1.13;1.03;;;33.60;54.60;;;;;;5013389;28;20847;-68
2022/08/29 08:51:24;;;;;;;0.70;0.63;;;34.30;52.10;;;;;;5013284;28;20415;-68
2022/08/29 08:53:53;;;;;;;0.90;0.80;;;34.40;49.20;;;;;;5014874;28;20403;-68
2022/08/29 08:56:31;;;;;;;2.47;0.90;;;34.90;48.50;;;;;;5016867;28;20500;-69
2022/08/29 08:59:05;;;;;;;1.03;0.80;;;35.10;47.20;;;;;;5016682;28;20410;-68
2022/08/29 09:01:42;;;;;;;0.60;0.60;;;35.30;46.60;;;;;;5015798;28;20481;-68
2022/08/29 09:04:26;;;;;;;0.93;0.83;;;35.70;46.40;;;;;;5017361;28;20442;-68
2022/08/29 09:07:07;;;;;;;0.70;0.70;;;36.60;45.40;;;;;;5015410;28;20808;-69
2022/08/29 09:09:51;;;;;;;1.37;0.87;;;37.40;43.80;;;;;;5016669;28;20508;-68
2022/08/29 09:12:35;;;;;;;2.00;1.20;;;37.60;42.40;;;;;;5015949;28;20615;-68
2022/08/29 09:15:15;;;;;;;0.60;0.60;;;37.80;42.50;;;;;;5016117;28;20453;-69
2022/08/29 09:17:53;;;;;;;0.50;0.50;;;38.00;40.20;;;;;;5016814;28;20924;-69
2022/08/29 09:20:27;;;;;;;0.63;0.63;;;37.30;40.00;;;;;;5016252;28;20964;-68
2022/08/29 09:23:18;;;;;;;1.10;1.00;;;36.40;41.10;;;;;;5016686;28;20402;-69
2022/08/29 09:25:44;;;;;;;0.80;0.70;;;34.90;43.30;;;;;;4980817;28;20438;-69
2022/08/29 09:28:10;;;;;;;0.77;0.70;;;34.40;43.80;;;;;;5016654;28;20485;-69
2022/08/29 09:30:38;;;;;;;0.77;0.77;;;34.70;43.40;;;;;;5016565;28;20899;-69
2022/08/29 09:33:04;;;;;;;0.97;0.70;;;34.60;44.60;;;;;;5015421;28;20528;-69
2022/08/29 09:35:40;;;;;;;0.90;0.70;;;34.20;44.20;;;;;;5015930;28;20432;-69
2022/08/29 09:38:18;;;;;;;0.70;0.60;;;33.80;46.50;;;;;;5016171;28;20550;-68
2022/08/29 09:40:57;;;;;;;0.60;0.60;;;33.90;45.70;;;;;;5015362;28;20449;-68
2022/08/29 09:43:26;;;;;;;0.67;0.67;;;34.40;45.40;;;;;;5016141;28;20426;-69
2022/08/29 09:46:07;;;;;;;0.70;0.70;;;34.90;43.20;;;;;;5016059;28;20427;-69
2022/08/29 09:48:35;;;;;;;0.83;0.67;;;34.80;43.60;;;;;;5015794;28;20445;-68
2022/08/29 09:51:18;;;;;;;0.77;0.73;;;33.80;44.70;;;;;;5015686;28;20406;-68
2022/08/29 09:53:44;;;;;;;0.93;0.87;;;33.20;46.50;;;;;;5016226;28;20449;-69
2022/08/29 09:56:16;;;;;;;0.63;0.63;;;32.90;45.30;;;;;;5015706;28;20434;-69
2022/08/29 09:58:42;;;;;;;0.90;0.77;;;33.00;46.80;;;;;;5015855;28;20536;-68
2022/08/29 10:01:15;;;;;;;0.80;0.80;;;33.00;46.80;;;;;;5015488;28;20497;-68
2022/08/29 10:03:51;;;;;;;0.80;0.70;;;32.90;49.00;;;;;;5015823;28;20406;-68
2022/08/29 10:06:24;;;;;;;1.10;0.83;;;33.40;47.00;;;;;;5014665;28;20513;-68
2022/08/29 10:09:07;;;;;;;0.70;0.70;;;34.30;44.90;;;;;;5015541;28;20456;-69
2022/08/29 10:11:48;;;;;;;1.20;1.13;;;35.20;43.90;;;;;;5015132;28;20398;-69
2022/08/29 10:14:28;;;;;;;0.97;0.87;;;34.50;46.10;;;;;;5015125;28;20465;-69
2022/08/29 10:19:47;;;;;;;0.60;0.60;;;34.10;47.60;;;;;;5014830;28;20922;-69
2022/08/29 10:22:31;;;;;;;0.70;0.70;;;34.20;44.10;;;;;;5015525;28;20754;-69
2022/08/29 10:25:11;;;;;;;0.97;0.90;;;34.00;42.90;;;;;;5015287;28;20394;-69
2022/08/29 10:28:01;;;;;;;1.00;1.00;;;33.60;43.50;;;;;;5015195;28;20462;-68
2022/08/29 10:30:39;;;;;;;1.10;1.00;;;32.80;46.40;;;;;;5015228;28;20402;-69
2022/08/29 10:33:11;;;;;;;0.80;0.80;;;31.50;47.50;;;;;;5015380;28;20494;-68
2022/08/29 10:35:49;;;;;;;1.40;0.83;;;30.90;50.30;;;;;;5015206;28;20423;-69
2022/08/29 10:38:32;;;;;;;0.83;0.83;;;30.90;50.20;;;;;;5015060;28;20387;-68
2022/08/29 10:41:13;;;;;;;0.80;0.80;;;31.10;49.10;;;;;;5015082;28;20399;-69
2022/08/29 10:43:57;;;;;;;1.27;1.07;;;31.20;48.30;;;;;;5015026;28;20416;-68
2022/08/29 10:46:42;;;;;;;0.80;0.80;;;30.20;50.00;;;;;;5014811;28;20805;-69
2022/08/29 10:49:37;;;;;;;0.70;0.63;;;29.70;52.10;;;;;;5014973;28;20554;-69
2022/08/29 10:52:19;;;;;;;1.07;0.97;;;29.60;50.00;;;;;;5013417;28;20534;-69
2022/08/29 10:55:08;;;;;;;0.83;0.83;;;29.10;53.70;;;;;;5014775;28;20395;-69
2022/08/29 10:58:02;;;;;;;1.10;1.00;;;29.10;53.30;;;;;;5014885;28;20760;-69
2022/08/29 11:00:43;;;;;;;0.93;0.80;;;29.60;54.00;;;;;;5014494;28;20405;-68
2022/08/29 11:03:39;;;;;;;1.23;1.13;;;29.60;51.20;;;;;;5014855;28;20402;-68
2022/08/29 11:06:29;;;;;;;0.90;0.80;;;29.20;52.20;;;;;;5013885;28;20619;-68
2022/08/29 11:09:15;;;;;;;0.70;0.70;;;29.00;52.00;;;;;;5014710;28;20447;-69
2022/08/29 11:11:58;;;;;;;0.83;0.60;;;28.80;50.90;;;;;;5014254;28;20402;-68
2022/08/29 11:14:31;;;;;;;0.63;0.63;;;28.80;51.40;;;;;;5014488;28;20405;-68
2022/08/29 11:16:58;;;;;;;2.00;1.37;;;28.90;53.60;;;;;;5014247;28;20416;-68
2022/08/29 11:19:33;;;;;;;0.90;0.80;;;29.10;56.20;;;;;;5014368;28;20399;-69
2022/08/29 11:22:05;;;;;;;1.00;1.00;;;29.40;54.20;;;;;;5014428;28;20494;-69
2022/08/29 11:24:33;;;;;;;1.07;0.50;;;29.20;52.40;;;;;;5014484;28;20921;-69
2022/08/29 11:27:14;;;;;;;0.87;0.87;;;28.50;54.50;;;;;;5014106;28;20465;-68
2022/08/29 11:29:44;;;;;;;0.93;0.93;;;28.40;55.40;;;;;;5014255;28;20450;-68
2022/08/29 11:32:41;;;;;;;0.53;0.53;;;28.70;54.90;;;;;;5014254;28;20414;-68
2022/08/29 11:35:50;;;;;;;1.30;1.20;;;29.00;52.60;;;;;;4944024;28;20418;-69
2022/08/29 11:38:53;;;;;;;0.80;0.77;;;29.00;52.50;;;;;;5014121;28;20744;-68
2022/08/29 11:41:31;;;;;;;0.43;0.43;;;28.80;51.20;;;;;;4948120;28;20422;-68
2022/08/29 11:44:06;;;;;;;1.50;0.70;;;28.40;51.80;;;;;;5014336;28;20434;-69
2022/08/29 11:46:37;;;;;;;0.77;0.60;;;28.20;50.40;;;;;;5013940;28;20509;-69
2022/08/29 11:49:32;;;;;;;1.10;1.10;;;28.10;53.30;;;;;;5014029;28;20442;-69
2022/08/29 11:52:24;;;;;;;0.77;0.77;;;28.20;53.20;;;;;;5013919;28;20427;-68
2022/08/29 11:55:13;;;;;;;0.93;0.87;;;28.00;53.60;;;;;;5013908;28;20506;-68
2022/08/29 11:57:51;;;;;;;0.50;0.50;;;27.80;53.00;;;;;;5013700;28;20382;-68
2022/08/29 12:00:32;;;;;;;1.53;1.17;;;27.50;54.80;;;;;;5013880;28;20402;-68
2022/08/29 12:02:58;;;;;;;0.83;0.83;;;27.20;56.20;;;;;;5013866;28;20437;-69
2022/08/29 12:05:51;;;;;;;0.73;0.73;;;27.20;55.60;;;;;;5013596;28;20769;-69
2022/08/29 12:08:45;;;;;;;0.40;0.40;;;27.30;54.00;;;;;;5013698;28;20454;-68
2022/08/29 12:11:10;;;;;;;0.60;0.60;;;27.10;56.60;;;;;;4973082;28;20419;-68
2022/08/29 12:13:45;;;;;;;0.70;0.70;;;27.10;55.10;;;;;;5013785;28;20766;-68
2022/08/29 12:16:14;;;;;;;0.50;0.50;;;27.10;56.10;;;;;;5013425;28;20202;-68
2022/08/29 12:18:44;;;;;;;0.50;0.50;;;26.90;54.90;;;;;;5013756;28;20423;-68
2022/08/29 12:21:31;;;;;;;0.90;0.90;;;26.90;55.10;;;;;;5013418;28;20410;-68
2022/08/29 12:23:57;;;;;;;2.30;0.93;;;26.90;57.00;;;;;;5013633;28;20410;-68
2022/08/29 12:26:37;;;;;;;1.03;0.83;;;27.10;56.80;;;;;;5012310;28;20490;-68
2022/08/29 12:29:03;;;;;;;0.60;0.50;;;27.20;54.60;;;;;;5015016;28;20962;-68
2022/08/29 12:31:53;;;;;;;0.97;0.60;;;27.10;56.50;;;;;;5017078;28;20404;-68
2022/08/29 12:34:46;;;;;;;0.60;0.60;;;27.10;54.70;;;;;;5016982;28;20176;-68
2022/08/29 12:37:50;;;;;;;1.13;1.03;;;27.20;54.60;;;;;;5016675;28;20822;-68
2022/08/29 12:40:36;;;;;;;0.70;0.70;;;27.10;53.90;;;;;;5014925;28;20783;-68
2022/08/29 12:43:36;;;;;;;0.67;0.67;;;27.10;54.30;;;;;;5017494;28;20443;-68
2022/08/29 12:46:10;;;;;;;1.33;0.80;;;27.10;55.00;;;;;;5002934;28;20442;-69
2022/08/29 12:48:44;;;;;;;0.60;0.57;;;27.10;54.30;;;;;;5016559;28;20458;-69
2022/08/29 12:51:34;;;;;;;0.60;0.60;;;27.00;53.50;;;;;;5017009;28;20412;-68
2022/08/29 12:53:59;;;;;;;0.97;0.70;;;27.00;53.60;;;;;;5016598;28;20902;-68
2022/08/29 12:56:25;;;;;;;1.10;1.00;;;27.00;53.40;;;;;;5016597;28;20433;-68
2022/08/29 12:58:51;;;;;;;1.47;0.70;;;27.00;54.70;;;;;;5016234;28;20191;-68
2022/08/29 13:01:32;;;;;;;0.97;0.70;;;27.10;54.30;;;;;;5014706;28;20528;-68
2022/08/29 13:04:09;;;;;;;0.90;0.70;;;27.00;53.30;;;;;;5016118;28;20258;-70
2022/08/29 13:06:36;;;;;;;1.13;1.00;;;27.00;53.70;;;;;;5016584;28;20430;-71
2022/08/29 13:09:04;;;;;;;0.83;0.83;;;26.90;52.50;;;;;;5016659;28;20449;-70
2022/08/29 13:11:32;;;;;;;0.73;0.73;;;26.90;53.10;;;;;;5016560;28;20407;-70
2022/08/29 13:14:24;;;;;;;0.57;0.50;;;27.00;51.60;;;;;;5016701;28;20402;-70